Time;durP1;ratioP1;P1;durP2;ratioP2;P2;SDS_P1;SDS_P2;PMS_P1;PMS_P2;Temp;Humidity;BMP_temperature;BMP_pressure;BME280_temperature;BME280_humidity;BME280_pressure;Samples;Min_cycle;Max_cycle;Signal;HPM_P1;HPM_P2
2021/05/06 00:34:05;;;;;;;9.45;1.75;;;;;;;4.99;94.71;96075.69;4932109;28;20737;-71
2021/05/06 00:36:34;;;;;;;3.85;1.73;;;;;;;4.96;95.94;96075.84;4937983;28;20189;-72
2021/05/06 00:39:04;;;;;;;2.47;1.13;;;;;;;5.01;95.08;96068.75;4935934;28;20694;-71
2021/05/06 00:41:47;;;;;;;2.97;1.17;;;;;;;4.96;94.88;96057.81;4937539;28;20208;-72
2021/05/06 00:55:52;;;;;;;2.85;1.13;;;;;;;4.98;94.69;96064.56;4943153;28;20309;-72
2021/05/06 00:58:42;;;;;;;1.58;1.00;;;;;;;5.02;94.32;96057.53;4942610;28;20202;-71
2021/05/06 01:01:34;;;;;;;1.13;0.73;;;;;;;5.02;94.39;96057.53;4942666;28;20222;-72
2021/05/06 01:04:15;;;;;;;7.32;1.67;;;;;;;4.99;93.85;96052.50;4942480;28;20587;-71
2021/05/06 01:06:54;;;;;;;2.88;1.40;;;;;;;5.02;94.46;96040.28;4941415;28;20775;-72
2021/05/06 01:09:24;;;;;;;4.60;1.42;;;;;;;5.02;94.37;96049.78;4939181;28;20221;-72
2021/05/06 01:11:55;;;;;;;3.00;1.20;;;;;;;5.03;94.56;96046.28;4939674;28;20199;-72
2021/05/06 01:14:22;;;;;;;2.05;1.35;;;;;;;5.08;93.85;96062.38;4940697;28;20867;-71
2021/05/06 01:16:49;;;;;;;1.38;0.80;;;;;;;5.05;94.57;96055.63;4940376;28;20191;-71
2021/05/06 01:19:16;;;;;;;5.75;1.30;;;;;;;5.05;94.16;96065.09;4944552;28;20286;-71
2021/05/06 01:21:44;;;;;;;9.35;1.48;;;;;;;5.09;94.14;96067.44;4941311;28;20195;-71
2021/05/06 01:24:11;;;;;;;7.07;1.27;;;;;;;5.07;94.88;96063.25;4941800;28;20230;-71
2021/05/06 01:26:41;;;;;;;2.20;1.50;;;;;;;5.08;94.62;96059.81;4945974;28;20194;-71
2021/05/06 01:29:12;;;;;;;4.43;1.33;;;;;;;5.09;93.71;96062.28;4941503;28;20697;-72
2021/05/06 01:31:43;;;;;;;2.47;1.45;;;;;;;5.13;93.41;96055.22;4943789;28;20484;-71
2021/05/06 01:34:13;;;;;;;4.00;1.33;;;;;;;5.16;93.03;96052.50;4941793;28;20738;-71
2021/05/06 01:36:44;;;;;;;2.83;1.55;;;;;;;5.13;91.72;96037.19;4945145;28;20183;-72
2021/05/06 01:39:36;;;;;;;2.20;1.50;;;;;;;5.24;91.99;96056.38;4927788;28;20453;-72
2021/05/06 01:42:08;;;;;;;5.50;1.30;;;;;;;5.29;91.41;96058.72;4938221;28;20739;-73
2021/05/06 01:45:06;;;;;;;1.23;1.10;;;;;;;5.30;91.91;96060.41;4941896;28;20297;-72
2021/05/06 01:47:35;;;;;;;3.22;1.15;;;;;;;5.30;90.82;96048.31;4942869;28;20650;-72
2021/05/06 01:50:20;;;;;;;6.35;1.17;;;;;;;5.40;89.83;96046.13;4944194;28;20313;-73
2021/05/06 01:58:32;;;;;;;3.47;1.17;;;;;;;5.51;89.20;96030.91;4938314;28;20544;-72
2021/05/06 02:01:01;;;;;;;5.82;1.65;;;;;;;5.49;89.82;96030.16;4937665;28;20215;-71
2021/05/06 02:03:28;;;;;;;3.08;1.40;;;;;;;5.41;90.57;96028.00;4941596;28;20606;-72
2021/05/06 02:05:55;;;;;;;4.90;2.13;;;;;;;5.37;90.95;96025.63;4947223;28;20535;-70
2021/05/06 02:08:26;;;;;;;2.60;1.10;;;;;;;5.38;91.23;96027.31;4945906;28;20614;-72
2021/05/06 02:10:57;;;;;;;4.70;2.15;;;;;;;5.34;91.85;96024.06;4938896;28;20618;-70
2021/05/06 02:13:23;;;;;;;8.13;1.67;;;;;;;5.29;91.60;96027.75;4943880;28;20623;-70
2021/05/06 02:15:54;;;;;;;2.83;1.45;;;;;;;5.20;91.96;96012.75;4944478;28;20701;-70
2021/05/06 02:18:22;;;;;;;4.47;1.58;;;;;;;5.29;92.07;96035.50;4943435;28;20206;-70
2021/05/06 02:20:50;;;;;;;2.90;1.40;;;;;;;5.34;92.32;96033.53;4942682;28;20187;-71
2021/05/06 02:23:17;;;;;;;8.88;1.85;;;;;;;5.28;91.85;96037.25;4925585;28;20579;-70
2021/05/06 02:25:44;;;;;;;4.78;1.70;;;;;;;5.32;91.64;96027.63;4943694;28;20219;-72
2021/05/06 02:28:12;;;;;;;2.92;2.00;;;;;;;5.36;91.99;96036.84;4944652;28;20610;-70
2021/05/06 02:30:40;;;;;;;2.35;1.50;;;;;;;5.36;92.51;96045.44;4937797;28;20223;-70
2021/05/06 02:33:08;;;;;;;4.03;2.22;;;;;;;5.37;91.64;96046.25;4927202;28;20544;-71
2021/05/06 02:35:37;;;;;;;6.32;2.13;;;;;;;5.21;91.92;96029.88;4926858;28;20317;-70
2021/05/06 02:38:06;;;;;;;12.75;2.05;;;;;;;5.37;91.79;96046.25;4939947;28;20424;-70
2021/05/06 02:40:33;;;;;;;6.35;2.05;;;;;;;5.33;92.82;96043.03;4937221;28;20685;-70
2021/05/06 02:43:00;;;;;;;4.05;1.20;;;;;;;5.32;92.36;96037.94;4942398;28;20701;-70
2021/05/06 02:45:28;;;;;;;6.40;1.75;;;;;;;5.33;92.51;96035.28;4942371;28;20310;-70
2021/05/06 02:47:55;;;;;;;10.82;1.55;;;;;;;5.35;92.39;96032.59;4943448;28;20828;-72
2021/05/06 02:50:24;;;;;;;4.55;1.60;;;;;;;5.29;91.82;96020.00;4936752;28;20689;-71
2021/05/06 02:52:58;;;;;;;3.35;1.38;;;;;;;5.36;92.22;96029.09;4944987;28;20180;-70
2021/05/06 02:55:31;;;;;;;2.63;1.60;;;;;;;5.30;92.96;96025.09;4923638;28;20249;-71
2021/05/06 02:58:03;;;;;;;7.68;1.70;;;;;;;5.28;93.64;96020.94;4938321;28;20235;-70
2021/05/06 03:03:15;;;;;;;2.88;1.67;;;;;;;5.22;93.47;96031.56;4942447;28;20820;-70
2021/05/06 03:05:46;;;;;;;6.65;1.50;;;;;;;5.13;94.06;96022.53;4942602;28;20608;-69
2021/05/06 03:08:16;;;;;;;3.00;1.58;;;;;;;5.13;94.72;96011.38;4940740;28;20195;-70
2021/05/06 03:24:33;;;;;;;2.38;1.73;;;;;;;4.84;95.92;95986.22;4941070;28;20254;-69
2021/05/06 03:27:02;;;;;;;5.00;1.67;;;;;;;4.84;95.91;95981.06;4940796;28;20686;-70
2021/05/06 03:29:32;;;;;;;7.32;2.30;;;;;;;4.78;96.16;95984.78;4941897;28;20672;-72
2021/05/06 03:32:09;;;;;;;7.13;2.25;;;;;;;4.73;97.59;95988.50;4938704;28;20198;-70
2021/05/06 03:34:41;;;;;;;5.90;2.40;;;;;;;4.65;97.99;95994.00;4943086;28;20676;-71
2021/05/06 03:42:58;;;;;;;3.13;1.48;;;;;;;4.63;98.35;95982.09;4939332;28;20560;-71
2021/05/06 03:46:12;;;;;;;6.30;1.58;;;;;;;4.60;98.02;95982.28;4939376;28;20230;-71
2021/05/06 04:16:36;;;;;;;6.72;1.80;;;;;;;5.33;95.29;95959.63;4938986;28;20214;-70
2021/05/06 04:19:09;;;;;;;3.80;1.95;;;;;;;5.18;94.16;95963.81;4939036;28;20222;-70
2021/05/06 04:21:44;;;;;;;9.70;2.60;;;;;;;5.07;94.33;95949.78;4944770;28;20195;-69
2021/05/06 04:27:06;;;;;;;7.45;1.48;;;;;;;5.17;94.84;95945.84;4938471;28;20213;-70
2021/05/06 04:38:10;;;;;;;5.05;1.60;;;;;;;4.95;94.98;95940.13;4885761;29;20196;-71
2021/05/06 04:40:58;;;;;;;3.63;1.52;;;;;;;5.06;94.77;95932.66;4880792;29;20239;-69
2021/05/06 04:54:29;;;;;;;4.75;1.63;;;;;;;5.18;93.83;95938.00;4884313;29;20664;-69
2021/05/06 04:57:08;;;;;;;4.15;2.15;;;;;;;5.25;94.59;95928.22;4875813;29;20780;-70
2021/05/06 05:05:06;;;;;;;2.83;1.50;;;;;;;5.39;92.55;95926.59;4881439;29;20240;-71
2021/05/06 05:07:36;;;;;;;7.85;2.00;;;;;;;5.44;93.30;95919.44;4889572;29;20324;-70
2021/05/06 05:10:21;;;;;;;3.10;1.77;;;;;;;5.56;93.41;95920.53;4921219;28;20227;-71
2021/05/06 05:18:29;;;;;;;2.85;1.75;;;;;;;5.26;93.38;95924.72;4942983;28;20179;-69
2021/05/06 05:23:57;;;;;;;6.25;1.95;;;;;;;5.27;95.42;95908.34;4898714;29;20864;-72
2021/05/06 05:26:25;;;;;;;4.20;2.05;;;;;;;5.28;95.39;95913.44;4902756;29;20263;-69
2021/05/06 05:28:52;;;;;;;5.00;2.55;;;;;;;5.25;95.89;95915.34;4916815;28;20742;-71
2021/05/06 05:31:19;;;;;;;4.35;1.77;;;;;;;5.38;96.08;95913.78;4940397;28;20198;-69
2021/05/06 05:33:47;;;;;;;5.97;2.03;;;;;;;5.50;96.05;95913.97;4939776;28;20227;-69
2021/05/06 05:36:17;;;;;;;3.13;1.50;;;;;;;5.56;95.07;95918.81;4945172;28;20199;-74
2021/05/06 05:38:53;;;;;;;6.30;2.42;;;;;;;5.63;94.88;95903.81;4942810;28;20665;-72
2021/05/06 05:41:46;;;;;;;5.68;1.42;;;;;;;5.85;94.43;95910.34;4939862;28;20191;-70
2021/05/06 05:55:27;;;;;;;4.65;1.58;;;;;;;5.87;93.76;95902.50;4864524;28;20913;-73
2021/05/06 05:57:54;;;;;;;8.70;1.80;;;;;;;5.82;93.14;95889.03;4939397;28;20191;-75
2021/05/06 06:00:22;;;;;;;7.13;1.70;;;;;;;5.87;93.40;95887.00;4942044;28;20230;-76
2021/05/06 06:02:53;;;;;;;2.88;1.33;;;;;;;5.94;93.32;95903.84;4946017;28;20279;-73
2021/05/06 06:05:20;;;;;;;4.55;1.50;;;;;;;5.93;92.99;95903.03;4941653;28;20769;-73
2021/05/06 06:07:47;;;;;;;5.05;1.77;;;;;;;5.98;93.08;95905.34;4941606;28;20309;-74
2021/05/06 06:10:14;;;;;;;11.90;2.05;;;;;;;5.94;92.66;95916.75;4939303;28;20611;-75
2021/05/06 06:12:41;;;;;;;2.95;1.58;;;;;;;5.93;92.73;95912.50;4940973;28;20583;-74
2021/05/06 06:15:12;;;;;;;9.07;1.35;;;;;;;5.96;93.71;95908.00;4945800;28;20680;-74
2021/05/06 06:17:42;;;;;;;4.45;1.70;;;;;;;6.00;92.02;95903.50;4939178;28;20258;-73
2021/05/06 06:20:10;;;;;;;19.67;1.75;;;;;;;5.95;92.53;95906.34;4948548;28;20710;-73
2021/05/06 06:22:38;;;;;;;5.43;1.90;;;;;;;6.02;91.28;95906.81;4943392;28;20262;-72
2021/05/06 06:25:05;;;;;;;5.20;1.63;;;;;;;6.03;92.14;95898.19;4924326;28;20619;-72
2021/05/06 06:27:32;;;;;;;5.90;2.13;;;;;;;6.04;92.38;95892.09;4943552;28;20199;-72
2021/05/06 06:30:00;;;;;;;3.38;1.50;;;;;;;6.10;92.69;95894.31;4945734;28;20678;-72
2021/05/06 06:32:27;;;;;;;5.15;1.75;;;;;;;6.04;92.36;95889.50;4943433;28;20625;-73
2021/05/06 06:34:55;;;;;;;4.55;2.05;;;;;;;6.06;92.24;95882.50;4940428;28;20223;-73
2021/05/06 06:37:22;;;;;;;5.68;1.90;;;;;;;6.01;92.53;95871.59;4947282;28;20198;-72
2021/05/06 06:39:50;;;;;;;9.43;2.03;;;;;;;6.06;92.56;95867.00;4943702;28;20567;-72
2021/05/06 06:42:17;;;;;;;5.95;1.50;;;;;;;6.16;91.88;95871.56;4939223;28;20198;-74
2021/05/06 06:44:45;;;;;;;7.45;1.85;;;;;;;6.15;92.45;95866.47;4941905;28;20674;-73
2021/05/06 06:47:12;;;;;;;4.43;1.60;;;;;;;6.17;92.60;95859.47;4949445;28;20233;-72
2021/05/06 06:49:41;;;;;;;7.07;1.90;;;;;;;6.21;92.17;95860.97;4942531;28;20227;-72
2021/05/06 06:52:11;;;;;;;8.45;2.10;;;;;;;6.20;91.26;95864.47;4946882;28;20183;-73
2021/05/06 06:54:40;;;;;;;6.95;2.00;;;;;;;6.16;92.27;95873.31;4941597;28;20222;-72
2021/05/06 06:57:08;;;;;;;12.95;2.15;;;;;;;6.07;92.60;95872.09;4944279;28;20638;-73
2021/05/06 06:59:36;;;;;;;3.63;1.80;;;;;;;6.18;92.67;95871.50;4938390;28;20233;-72
2021/05/06 07:02:03;;;;;;;3.95;1.80;;;;;;;6.22;92.09;95862.63;4944968;28;20811;-72
2021/05/06 07:04:31;;;;;;;9.13;1.80;;;;;;;6.30;91.36;95866.47;4941024;28;20291;-72
2021/05/06 07:06:58;;;;;;;22.02;10.90;;;;;;;6.34;90.88;95867.13;4939040;28;20187;-71
2021/05/06 07:09:26;;;;;;;9.10;1.10;;;;;;;6.43;91.12;95872.59;4937636;28;20702;-72
2021/05/06 07:11:53;;;;;;;4.68;1.50;;;;;;;6.37;90.92;95872.94;4911972;28;20198;-71
2021/05/06 07:14:20;;;;;;;5.97;2.47;;;;;;;6.31;92.42;95873.28;4941880;28;20287;-70
2021/05/06 07:16:55;;;;;;;7.80;1.65;;;;;;;6.30;92.22;95871.63;4941322;28;20651;-71
2021/05/06 07:19:23;;;;;;;8.55;2.35;;;;;;;6.29;93.19;95874.28;4921435;28;20752;-71
2021/05/06 07:21:50;;;;;;;2.47;1.35;;;;;;;6.35;92.40;95876.53;4926089;28;20658;-72
2021/05/06 07:24:17;;;;;;;7.22;2.08;;;;;;;6.34;93.23;95872.28;4943550;28;20231;-72
2021/05/06 07:26:49;;;;;;;3.90;1.60;;;;;;;6.45;93.25;95875.91;4949430;28;20638;-71
2021/05/06 07:29:20;;;;;;;2.88;1.45;;;;;;;6.51;92.87;95878.16;4949796;28;20277;-72
2021/05/06 07:31:50;;;;;;;4.07;1.95;;;;;;;6.54;92.98;95869.34;4949554;28;20194;-72
2021/05/06 07:34:20;;;;;;;4.03;1.55;;;;;;;6.52;92.70;95861.72;4948204;28;20583;-70
2021/05/06 07:36:49;;;;;;;7.85;2.60;;;;;;;6.72;92.75;95869.16;4914390;28;20672;-70
2021/05/06 07:39:18;;;;;;;3.05;1.75;;;;;;;6.80;91.32;95864.34;4938811;28;20223;-71
2021/05/06 07:41:47;;;;;;;4.38;1.95;;;;;;;6.96;91.89;95869.44;4943542;28;20521;-70
2021/05/06 07:44:17;;;;;;;4.25;2.10;;;;;;;7.09;90.63;95858.28;4945946;28;20227;-70
2021/05/06 07:46:46;;;;;;;11.02;2.42;;;;;;;7.29;90.93;95865.66;4946481;28;20645;-71
2021/05/06 07:49:18;;;;;;;7.35;1.80;;;;;;;7.50;90.15;95853.97;4946738;28;20737;-71
2021/05/06 07:51:48;;;;;;;5.13;1.85;;;;;;;7.58;88.95;95845.75;4938938;28;20195;-70
2021/05/06 07:54:17;;;;;;;10.23;1.63;;;;;;;7.66;87.68;95859.06;4942537;28;20218;-71
2021/05/06 07:56:46;;;;;;;3.72;2.25;;;;;;;7.71;89.13;95857.84;4946598;28;20512;-72
2021/05/06 07:59:13;;;;;;;5.68;1.38;;;;;;;7.81;87.88;95855.50;4942093;28;20243;-71
2021/05/06 08:01:44;;;;;;;4.50;1.85;;;;;;;7.83;87.35;95851.03;4944740;28;20186;-72
2021/05/06 08:04:10;;;;;;;5.10;1.50;;;;;;;7.69;87.21;95844.16;4941903;28;20635;-71
2021/05/06 08:06:38;;;;;;;2.25;1.60;;;;;;;7.71;87.08;95855.25;4941109;28;20678;-73
2021/05/06 08:09:05;;;;;;;3.95;2.08;;;;;;;7.70;88.48;95853.59;4936976;28;20770;-69
2021/05/06 08:11:33;;;;;;;12.73;2.53;;;;;;;7.81;89.29;95853.72;4937458;28;20813;-70
2021/05/06 08:13:59;;;;;;;8.82;1.80;;;;;;;7.77;87.37;95861.78;4942078;28;20460;-70
2021/05/06 08:16:27;;;;;;;9.93;4.40;;;;;;;7.74;88.96;95864.59;4941482;28;20187;-70
2021/05/06 08:18:54;;;;;;;3.92;1.60;;;;;;;7.70;88.55;95850.16;4938106;28;20215;-72
2021/05/06 08:21:21;;;;;;;11.80;2.13;;;;;;;7.73;88.66;95858.56;4943211;28;20270;-72
2021/05/06 08:23:48;;;;;;;4.47;1.43;;;;;;;7.77;88.32;95856.59;4942326;28;20770;-72
2021/05/06 08:26:15;;;;;;;10.18;2.55;;;;;;;7.83;88.94;95851.03;4945737;28;20509;-71
2021/05/06 08:28:49;;;;;;;4.55;1.80;;;;;;;7.91;89.25;95839.28;4945368;28;20758;-73
2021/05/06 08:31:16;;;;;;;4.03;1.60;;;;;;;7.96;89.40;95844.16;4938075;28;20203;-73
2021/05/06 08:33:43;;;;;;;3.60;2.15;;;;;;;8.00;88.41;95845.63;4940289;28;20649;-72
2021/05/06 08:36:11;;;;;;;6.00;2.10;;;;;;;8.02;88.25;95847.19;4939681;28;20444;-73
2021/05/06 08:38:38;;;;;;;3.83;1.40;;;;;;;8.02;87.67;95847.19;4939981;28;20932;-72
2021/05/06 08:41:06;;;;;;;6.00;2.10;;;;;;;7.98;87.21;95839.72;4948250;28;20225;-72
2021/05/06 08:43:36;;;;;;;10.40;2.00;;;;;;;7.98;87.17;95843.16;4938857;28;20203;-73
2021/05/06 08:46:04;;;;;;;8.57;1.90;;;;;;;7.99;86.50;95846.53;4944021;28;20202;-70
2021/05/06 08:48:36;;;;;;;3.47;1.80;;;;;;;8.02;87.13;95857.56;4941417;28;20193;-72
2021/05/06 08:51:05;;;;;;;3.73;2.27;;;;;;;8.01;86.60;95855.06;4941764;28;20214;-72
2021/05/06 08:53:34;;;;;;;7.60;2.25;;;;;;;8.01;87.65;95855.06;4946200;28;20846;-72
2021/05/06 08:56:01;;;;;;;6.35;2.10;;;;;;;8.13;87.72;95851.69;4946895;28;20191;-72
2021/05/06 08:58:28;;;;;;;5.65;2.03;;;;;;;8.03;87.77;95829.88;4941466;28;20206;-72
2021/05/06 09:00:55;;;;;;;5.67;2.20;;;;;;;8.32;87.23;95859.97;4941939;28;20596;-71
2021/05/06 09:03:22;;;;;;;4.95;1.73;;;;;;;8.24;86.13;95851.88;4940550;28;20519;-74
2021/05/06 09:06:10;;;;;;;8.53;2.40;;;;;;;8.22;85.71;95848.53;4922556;28;20686;-73
2021/05/06 09:08:39;;;;;;;6.53;1.50;;;;;;;8.20;85.27;95845.22;4935525;28;20910;-73
2021/05/06 09:11:06;;;;;;;8.80;1.87;;;;;;;8.26;85.68;95840.47;4923591;28;20798;-73
2021/05/06 09:13:34;;;;;;;5.37;1.90;;;;;;;8.27;85.15;95846.47;4943102;28;20505;-72
2021/05/06 09:16:02;;;;;;;5.40;1.93;;;;;;;8.32;85.80;95847.00;4942779;28;20485;-71
2021/05/06 09:18:38;;;;;;;3.90;1.67;;;;;;;8.37;84.87;95848.38;4941298;28;20505;-69
2021/05/06 09:21:06;;;;;;;6.53;1.70;;;;;;;8.27;83.88;95851.66;4945028;28;20828;-70
2021/05/06 09:23:34;;;;;;;5.40;1.60;;;;;;;8.23;84.89;95851.03;4937118;28;20579;-70
2021/05/06 09:26:04;;;;;;;5.13;1.87;;;;;;;8.26;84.21;95852.59;4943638;28;21130;-71
2021/05/06 09:28:33;;;;;;;6.77;1.80;;;;;;;8.32;85.07;95853.00;4939379;28;20913;-69
2021/05/06 09:31:01;;;;;;;5.53;1.80;;;;;;;8.35;85.35;95847.66;4944201;28;20937;-70
2021/05/06 09:33:31;;;;;;;6.43;1.40;;;;;;;8.37;84.59;95845.78;4949000;28;20934;-69
2021/05/06 09:36:08;;;;;;;8.23;1.90;;;;;;;8.31;84.70;95835.00;4947617;28;20442;-70
2021/05/06 09:38:38;;;;;;;4.50;1.40;;;;;;;8.27;84.23;95831.75;4927428;28;20476;-73
2021/05/06 09:41:07;;;;;;;9.13;2.30;;;;;;;8.43;84.39;95842.78;4939794;28;20951;-73
2021/05/06 09:43:39;;;;;;;7.80;2.43;;;;;;;8.43;84.20;95845.38;4942872;28;21129;-73
2021/05/06 09:46:29;;;;;;;4.57;1.70;;;;;;;8.50;84.39;95838.88;4948870;28;20533;-70
2021/05/06 09:49:01;;;;;;;9.93;2.10;;;;;;;8.46;82.03;95839.97;4942661;28;20455;-71
2021/05/06 09:51:37;;;;;;;4.17;1.40;;;;;;;8.42;82.59;95836.75;4926686;28;20782;-70
2021/05/06 09:54:05;;;;;;;3.87;1.47;;;;;;;8.35;82.33;95830.31;4944162;28;21016;-70
2021/05/06 09:56:33;;;;;;;5.30;1.83;;;;;;;8.38;82.79;95837.06;4943703;28;20967;-75
2021/05/06 09:59:01;;;;;;;8.63;1.73;;;;;;;8.49;82.71;95822.47;4921075;28;20970;-72
2021/05/06 10:01:39;;;;;;;2.60;1.30;;;;;;;8.55;81.63;95832.44;4944090;28;20434;-73
2021/05/06 10:04:17;;;;;;;5.63;1.70;;;;;;;8.53;80.99;95823.09;4937593;28;20787;-73
2021/05/06 10:07:04;;;;;;;3.93;1.60;;;;;;;8.48;81.92;95820.81;4937996;28;20987;-73
2021/05/06 10:09:31;;;;;;;6.87;1.93;;;;;;;8.46;82.15;95825.25;4942317;28;21037;-72
2021/05/06 10:12:00;;;;;;;3.63;1.80;;;;;;;8.43;82.16;95822.03;4950347;28;20537;-72
2021/05/06 10:14:27;;;;;;;7.20;1.40;;;;;;;8.46;81.86;95816.63;4945479;28;20962;-72
2021/05/06 10:16:54;;;;;;;9.13;1.80;;;;;;;8.43;80.21;95809.88;4939038;28;20925;-71
2021/05/06 10:19:22;;;;;;;14.43;2.00;;;;;;;8.50;80.59;95812.94;4942033;28;20525;-73
2021/05/06 10:21:49;;;;;;;7.07;1.50;;;;;;;8.45;79.72;95813.25;4941808;28;20446;-72
2021/05/06 10:24:17;;;;;;;8.77;1.97;;;;;;;8.46;80.59;95801.94;4941985;28;20473;-73
2021/05/06 10:26:45;;;;;;;10.30;1.47;;;;;;;8.48;80.92;95810.44;4944659;28;20906;-72
2021/05/06 10:29:17;;;;;;;4.10;1.70;;;;;;;8.39;81.31;95799.81;4919950;28;20797;-72
2021/05/06 10:31:45;;;;;;;7.37;1.80;;;;;;;8.44;81.24;95797.78;4942147;28;20802;-72
2021/05/06 10:34:12;;;;;;;11.27;2.67;;;;;;;8.46;81.04;95788.13;4941776;28;20820;-71
2021/05/06 10:36:41;;;;;;;2.73;1.30;;;;;;;8.54;81.75;95783.25;4944151;28;20452;-72
2021/05/06 10:39:11;;;;;;;10.73;1.60;;;;;;;8.53;82.26;95787.63;4942762;28;20509;-74
2021/05/06 10:41:39;;;;;;;5.60;1.90;;;;;;;8.47;82.54;95790.63;4942282;28;20818;-72
2021/05/06 10:44:07;;;;;;;5.33;1.40;;;;;;;8.42;82.71;95776.31;4937428;28;20958;-71
2021/05/06 10:46:58;;;;;;;9.27;3.53;;;;;;;8.35;84.57;95777.66;4945142;28;20513;-72
2021/05/06 10:49:28;;;;;;;10.60;2.93;;;;;;;8.28;85.91;95782.38;4944469;28;20757;-73
2021/05/06 10:52:00;;;;;;;2.70;1.50;;;;;;;8.27;86.08;95775.53;4940291;28;20924;-73
2021/05/06 10:54:30;;;;;;;6.60;1.60;;;;;;;8.23;86.36;95777.63;4943330;28;20474;-72
2021/05/06 10:56:58;;;;;;;3.37;0.97;;;;;;;8.11;87.03;95776.66;4939366;28;20217;-74
2021/05/06 10:59:27;;;;;;;6.90;1.63;;;;;;;8.11;88.70;95773.22;4941684;28;20462;-71
2021/05/06 11:01:55;;;;;;;5.20;1.30;;;;;;;8.14;88.72;95764.28;4950772;28;20469;-71
2021/05/06 11:04:33;;;;;;;2.87;1.10;;;;;;;8.16;88.01;95776.34;4937141;28;20748;-73
2021/05/06 11:07:11;;;;;;;2.43;1.57;;;;;;;8.04;89.21;95774.53;4947174;28;20488;-72
2021/05/06 11:09:50;;;;;;;3.53;1.47;;;;;;;7.90;89.15;95753.88;4935639;28;20829;-71
2021/05/06 11:12:23;;;;;;;7.60;1.20;;;;;;;8.01;90.42;95769.56;4943349;28;20439;-72
2021/05/06 11:15:29;;;;;;;2.50;0.97;;;;;;;8.09;89.53;95775.09;4946712;28;20458;-72
2021/05/06 11:17:59;;;;;;;4.33;1.40;;;;;;;8.10;89.72;95766.38;4935851;28;20835;-72
2021/05/06 11:20:47;;;;;;;3.13;1.50;;;;;;;8.17;89.77;95768.44;4936833;28;20579;-73
2021/05/06 11:23:20;;;;;;;3.08;0.95;;;;;;;8.09;89.61;95762.13;4940618;28;20769;-72
2021/05/06 11:25:48;;;;;;;3.13;1.10;;;;;;;8.01;89.57;95746.25;4943373;28;20296;-71
2021/05/06 11:28:46;;;;;;;2.20;1.10;;;;;;;8.06;90.19;95749.34;4940315;28;20798;-75
2021/05/06 11:31:13;;;;;;;1.65;0.85;;;;;;;8.04;89.91;95746.03;4935600;28;20529;-73
2021/05/06 11:33:41;;;;;;;2.20;1.10;;;;;;;7.95;89.50;95741.47;4942668;28;20560;-70
2021/05/06 11:36:13;;;;;;;4.18;1.65;;;;;;;7.97;91.87;95739.59;4948838;28;20575;-71
2021/05/06 11:38:58;;;;;;;1.33;0.83;;;;;;;7.90;90.30;95727.97;4938440;28;20572;-73
2021/05/06 11:41:33;;;;;;;2.60;0.87;;;;;;;7.87;91.18;95725.59;4937736;28;20533;-71
2021/05/06 11:44:04;;;;;;;1.43;1.00;;;;;;;7.86;92.18;95726.53;4932927;28;20470;-71
2021/05/06 11:46:32;;;;;;;5.07;1.90;;;;;;;7.90;91.85;95722.78;4948439;28;20480;-71
2021/05/06 11:49:03;;;;;;;1.27;0.88;;;;;;;7.79;91.13;95720.09;4936927;28;20583;-72
2021/05/06 11:51:32;;;;;;;2.93;1.03;;;;;;;7.81;91.80;95713.84;4942614;28;20762;-73
2021/05/06 11:54:10;;;;;;;3.28;1.10;;;;;;;7.84;92.12;95712.81;4942356;28;20473;-73
2021/05/06 11:56:40;;;;;;;2.27;1.00;;;;;;;8.00;92.18;95709.13;4936313;28;20547;-72
2021/05/06 11:59:07;;;;;;;2.00;1.10;;;;;;;7.82;89.06;95688.78;4943886;28;20489;-71
2021/05/06 12:01:35;;;;;;;2.35;0.70;;;;;;;7.92;88.40;95695.84;4947728;28;20176;-72
2021/05/06 12:04:04;;;;;;;0.80;0.60;;;;;;;7.94;88.66;95693.19;4946418;28;20262;-72
2021/05/06 12:06:34;;;;;;;1.23;0.70;;;;;;;7.94;89.18;95682.81;4939640;28;20856;-71
2021/05/06 12:09:02;;;;;;;1.40;0.82;;;;;;;8.01;89.81;95673.69;4943165;28;20347;-73
2021/05/06 12:11:37;;;;;;;0.80;0.60;;;;;;;8.06;88.33;95672.47;4940677;28;20223;-73
2021/05/06 12:14:05;;;;;;;1.30;0.70;;;;;;;8.08;89.95;95667.19;4938873;28;21019;-72
2021/05/06 12:16:34;;;;;;;1.00;0.70;;;;;;;8.20;89.91;95666.38;4944937;28;20434;-72
2021/05/06 12:19:09;;;;;;;1.70;1.00;;;;;;;8.25;89.32;95666.91;4938887;28;20466;-74
2021/05/06 12:21:42;;;;;;;5.17;2.53;;;;;;;8.27;89.82;95655.50;4940910;28;20804;-73
2021/05/06 12:24:11;;;;;;;1.10;0.90;;;;;;;8.32;88.72;95647.41;4942032;28;20521;-73
2021/05/06 12:26:40;;;;;;;1.50;0.67;;;;;;;8.23;88.42;95642.84;4940929;28;20478;-72
2021/05/06 12:29:19;;;;;;;0.80;0.60;;;;;;;8.17;87.97;95638.84;4935679;28;20470;-76
2021/05/06 12:31:47;;;;;;;1.60;1.17;;;;;;;8.23;89.15;95630.69;4942641;28;20759;-74
2021/05/06 12:34:18;;;;;;;0.90;0.70;;;;;;;8.27;89.93;95630.38;4947480;28;20462;-75
2021/05/06 12:36:50;;;;;;;2.40;0.70;;;;;;;8.13;88.69;95629.66;4942948;28;20715;-75
2021/05/06 12:39:18;;;;;;;1.17;0.70;;;;;;;8.24;89.97;95623.78;4946055;28;20483;-74
2021/05/06 12:41:54;;;;;;;1.57;0.67;;;;;;;8.26;89.67;95616.72;4940457;28;20513;-75
2021/05/06 12:44:35;;;;;;;0.80;0.70;;;;;;;8.10;90.95;95616.06;4941271;28;20466;-75
2021/05/06 12:47:22;;;;;;;1.80;0.80;;;;;;;8.11;92.20;95607.34;4946253;28;20426;-75
2021/05/06 12:50:08;;;;;;;3.33;1.20;;;;;;;8.06;91.25;95609.41;4958054;28;20470;-74
2021/05/06 12:52:36;;;;;;;1.20;0.83;;;;;;;7.95;92.18;95596.38;4964862;28;20580;-75
2021/05/06 12:55:19;;;;;;;2.30;0.97;;;;;;;8.07;92.06;95611.06;4945060;28;20496;-73
2021/05/06 12:58:02;;;;;;;4.57;1.10;;;;;;;7.95;93.60;95617.09;4950449;28;20779;-75
2021/05/06 13:00:32;;;;;;;2.30;0.93;;;;;;;7.93;94.62;95613.75;4948304;28;20700;-73
2021/05/06 13:03:03;;;;;;;3.83;1.15;;;;;;;7.85;95.66;95616.03;4942565;28;20925;-74
2021/05/06 13:05:33;;;;;;;2.70;1.10;;;;;;;7.89;96.15;95613.19;4944300;28;20504;-75
2021/05/06 13:08:00;;;;;;;3.90;1.30;;;;;;;7.83;95.69;95610.16;4942347;28;20913;-75
2021/05/06 13:10:32;;;;;;;1.48;1.23;;;;;;;7.73;96.15;95607.34;4942643;28;20462;-74
2021/05/06 13:13:05;;;;;;;1.70;1.10;;;;;;;7.54;95.52;95604.31;4927639;28;20201;-73
2021/05/06 13:15:46;;;;;;;2.10;1.35;;;;;;;7.51;98.47;95606.28;4936598;28;20945;-75
2021/05/06 13:18:13;;;;;;;3.60;1.60;;;;;;;7.50;98.63;95599.47;4943549;28;20201;-75
2021/05/06 13:20:42;;;;;;;3.33;1.20;;;;;;;7.45;99.04;95593.75;4942220;28;20666;-71
2021/05/06 13:23:10;;;;;;;1.00;0.77;;;;;;;7.46;98.31;95582.44;4943359;28;20233;-74
2021/05/06 13:25:43;;;;;;;2.35;0.82;;;;;;;7.41;97.73;95574.16;4936388;28;20231;-74
2021/05/06 13:28:12;;;;;;;1.27;0.93;;;;;;;7.34;97.86;95572.91;4943611;28;20729;-72
2021/05/06 13:30:40;;;;;;;2.15;0.80;;;;;;;7.39;99.00;95576.03;4938620;28;20609;-73
2021/05/06 13:33:12;;;;;;;1.95;1.00;;;;;;;7.38;100.00;95564.00;4942144;28;20713;-72
2021/05/06 13:36:06;;;;;;;1.65;1.17;;;;;;;7.48;99.75;95552.09;4920252;28;20243;-73
2021/05/06 13:38:54;;;;;;;3.30;1.15;;;;;;;7.56;99.78;95540.31;4946296;28;20250;-71
2021/05/06 13:41:23;;;;;;;2.35;1.20;;;;;;;7.64;99.95;95530.28;4944676;28;20655;-72
2021/05/06 13:43:51;;;;;;;5.40;1.50;;;;;;;7.75;99.96;95532.13;4939691;28;20246;-73
2021/05/06 13:46:19;;;;;;;4.43;1.20;;;;;;;7.70;99.05;95522.09;4942273;28;20247;-71
2021/05/06 13:48:46;;;;;;;1.83;1.40;;;;;;;7.84;99.96;95523.72;4946465;28;20466;-72
2021/05/06 13:51:15;;;;;;;8.00;3.40;;;;;;;7.84;100.00;95518.56;4939851;28;20702;-73
2021/05/06 13:53:45;;;;;;;3.60;1.70;;;;;;;7.93;100.00;95515.31;4942658;28;20965;-72
2021/05/06 13:56:12;;;;;;;2.57;1.10;;;;;;;7.89;98.55;95498.34;4944778;28;20461;-72
2021/05/06 13:58:40;;;;;;;4.43;1.03;;;;;;;7.88;98.78;95494.09;4943092;28;20794;-72
2021/05/06 14:01:09;;;;;;;3.70;1.13;;;;;;;8.00;98.50;95501.00;4947971;28;20933;-73
2021/05/06 14:03:37;;;;;;;2.53;1.30;;;;;;;7.92;97.56;95491.19;4941215;28;20974;-72
2021/05/06 14:06:05;;;;;;;4.75;0.90;;;;;;;7.85;98.00;95491.72;4943229;28;20211;-73
2021/05/06 14:08:34;;;;;;;2.13;1.25;;;;;;;7.74;97.83;95484.69;4946628;28;20266;-72
2021/05/06 14:11:01;;;;;;;1.50;1.40;;;;;;;7.85;100.00;95477.00;4931251;28;20630;-71
2021/05/06 14:13:30;;;;;;;4.20;1.53;;;;;;;7.92;100.00;95474.81;4938396;28;20850;-73
2021/05/06 14:15:57;;;;;;;2.85;1.30;;;;;;;8.04;99.99;95469.63;4947374;28;20946;-72
2021/05/06 14:18:24;;;;;;;2.17;1.37;;;;;;;7.98;99.58;95470.06;4943556;28;20246;-71
2021/05/06 14:20:53;;;;;;;2.13;1.20;;;;;;;7.91;98.99;95455.03;4947279;28;20447;-71
2021/05/06 14:23:22;;;;;;;1.97;1.10;;;;;;;7.87;100.00;95458.78;4944711;28;20942;-71
2021/05/06 14:25:49;;;;;;;2.53;1.70;;;;;;;7.90;100.00;95445.59;4939550;28;20569;-72
2021/05/06 14:28:16;;;;;;;2.00;1.30;;;;;;;7.92;100.00;95446.31;4942664;28;20901;-72